Time;durP1;ratioP1;P1;durP2;ratioP2;P2;SDS_P1;SDS_P2;PMS_P1;PMS_P2;Temp;Humidity;BMP_temperature;BMP_pressure;BME280_temperature;BME280_humidity;BME280_pressure;Samples;Min_cycle;Max_cycle;Signal;HPM_P1;HPM_P2
2022/05/19 00:01:32;;;;;;;15.18;11.55;;;;;;;;;;4986773;28;20041;-71
2022/05/19 00:03:58;;;;;;;16.45;12.00;;;;;;;;;;4987570;28;20841;-72
2022/05/19 00:06:23;;;;;;;15.48;11.10;;;;;;;;;;4992017;28;20033;-72
2022/05/19 00:08:48;;;;;;;17.80;10.85;;;;;;;;;;4985913;28;20051;-71
2022/05/19 00:11:15;;;;;;;15.70;10.75;;;;;;;;;;4988366;28;20037;-71
2022/05/19 00:13:40;;;;;;;15.63;10.82;;;;;;;;;;4991310;28;20044;-72
2022/05/19 00:16:06;;;;;;;15.50;11.68;;;;;;;;;;4994392;28;20470;-71
2022/05/19 00:18:32;;;;;;;14.20;10.45;;;;;;;;;;4991475;28;20076;-71
2022/05/19 00:21:00;;;;;;;16.63;11.05;;;;;;;;;;4992184;28;20057;-71
2022/05/19 00:23:25;;;;;;;17.08;11.00;;;;;;;;;;4992007;28;20516;-72
2022/05/19 00:25:53;;;;;;;12.93;10.85;;;;;;;;;;4995118;28;20041;-71
2022/05/19 00:28:21;;;;;;;15.50;11.18;;;;;;;;;;4992486;28;20049;-71
2022/05/19 00:30:46;;;;;;;13.90;10.75;;;;;;;;;;4988757;28;20138;-71
2022/05/19 00:33:15;;;;;;;14.25;11.00;;;;;;;;;;4981825;28;20061;-72
2022/05/19 00:35:40;;;;;;;17.95;11.65;;;;;;;;;;4989384;28;20247;-71
2022/05/19 00:38:06;;;;;;;18.67;12.50;;;;;;;;;;4986715;28;20037;-72
2022/05/19 00:40:31;;;;;;;14.00;11.18;;;;;;;;;;4990255;28;20030;-70
2022/05/19 00:42:59;;;;;;;17.77;11.65;;;;;;;;;;4992295;28;20191;-71
2022/05/19 00:45:25;;;;;;;17.80;12.00;;;;;;;;;;4990723;28;20065;-70
2022/05/19 00:47:53;;;;;;;17.67;11.82;;;;;;;;;;4992155;28;21952;-71
2022/05/19 00:50:21;;;;;;;19.40;12.38;;;;;;;;;;4991149;28;20068;-70
2022/05/19 00:52:49;;;;;;;16.85;13.00;;;;;;;;;;4987109;28;20042;-70
2022/05/19 00:55:17;;;;;;;20.30;13.95;;;;;;;;;;4991731;28;20527;-71
2022/05/19 00:57:49;;;;;;;16.67;12.90;;;;;;;;;;4989822;28;20417;-70
2022/05/19 01:00:17;;;;;;;18.58;12.95;;;;;;;;;;5005011;28;20513;-71
2022/05/19 01:02:46;;;;;;;18.95;13.40;;;;;;;;;;4991337;28;20479;-71
2022/05/19 01:05:16;;;;;;;18.63;13.35;;;;;;;;;;4991490;28;20037;-71
2022/05/19 01:07:51;;;;;;;19.23;13.93;;;;;;;;;;5001400;28;20045;-72
2022/05/19 01:10:21;;;;;;;18.88;13.88;;;;;;;;;;4990815;28;20052;-72
2022/05/19 01:12:49;;;;;;;18.83;14.27;;;;;;;;;;4991707;28;20789;-70
2022/05/19 01:15:17;;;;;;;18.77;14.18;;;;;;;;;;4990409;28;20656;-69
2022/05/19 01:17:43;;;;;;;22.50;14.68;;;;;;;;;;4992065;28;20140;-71
2022/05/19 01:20:17;;;;;;;17.48;14.57;;;;;;;;;;5001363;28;22063;-71
2022/05/19 01:22:58;;;;;;;22.98;16.02;;;;;;;;;;4990154;28;20803;-71
2022/05/19 01:25:30;;;;;;;20.65;15.52;;;;;;;;;;4991884;28;20212;-71
2022/05/19 01:27:55;;;;;;;;;;;;;;;;;;4972512;28;20190;-72
2022/05/19 01:30:21;;;;;;;19.97;15.37;;;;;;;;;;4970398;28;19933;-72
2022/05/19 01:32:54;;;;;;;21.33;16.02;;;;;;;;;;4970273;28;21089;-72
2022/05/19 01:35:19;;;;;;;21.45;15.68;;;;;;;;;;4971220;28;20046;-71
2022/05/19 01:37:45;;;;;;;22.23;16.23;;;;;;;;;;4948076;28;20045;-72
2022/05/19 01:40:29;;;;;;;22.50;16.17;;;;;;;;;;4952634;28;20194;-71
2022/05/19 01:43:14;;;;;;;21.13;16.38;;;;;;;;;;4970449;28;20036;-71
2022/05/19 01:45:54;;;;;;;23.52;16.05;;;;;;;;;;4964534;28;20267;-71
2022/05/19 01:48:32;;;;;;;20.13;15.02;;;;;;;;;;4966009;28;21937;-71
2022/05/19 01:50:57;;;;;;;24.17;16.42;;;;;;;;;;4969489;28;20999;-71
2022/05/19 01:53:28;;;;;;;23.15;15.73;;;;;;;;;;4972701;28;20205;-71
2022/05/19 01:56:12;;;;;;;19.52;15.90;;;;;;;;;;4968370;28;20961;-72
2022/05/19 01:58:38;;;;;;;25.17;16.90;;;;;;;;;;4969568;28;20037;-71
2022/05/19 02:01:06;;;;;;;21.55;16.15;;;;;;;;;;4969866;28;20144;-71
2022/05/19 02:03:37;;;;;;;21.63;15.68;;;;;;;;;;4973968;28;20099;-71
2022/05/19 02:06:08;;;;;;;22.90;16.48;;;;;;;;;;4974464;28;20056;-71
2022/05/19 02:08:36;;;;;;;25.73;15.93;;;;;;;;;;4968833;28;20123;-71
2022/05/19 02:11:04;;;;;;;24.60;16.60;;;;;;;;;;4965328;28;20041;-70
2022/05/19 02:13:30;;;;;;;23.75;16.88;;;;;;;;;;4972063;28;22203;-71
2022/05/19 02:15:58;;;;;;;25.95;18.08;;;;;;;;;;4970745;28;20128;-71
2022/05/19 02:18:26;;;;;;;25.63;17.35;;;;;;;;;;4971228;28;20092;-71
2022/05/19 02:20:53;;;;;;;22.73;16.88;;;;;;;;;;4960840;28;20083;-71
2022/05/19 02:23:19;;;;;;;24.92;16.83;;;;;;;;;;4965964;28;20033;-71
2022/05/19 02:25:51;;;;;;;22.08;17.20;;;;;;;;;;4968203;28;20148;-71
2022/05/19 02:28:20;;;;;;;22.33;17.55;;;;;;;;;;4968671;28;20041;-72
2022/05/19 02:30:47;;;;;;;19.67;17.10;;;;;;;;;;4970055;28;20794;-71
2022/05/19 02:33:13;;;;;;;25.40;18.25;;;;;;;;;;4970110;28;20034;-72
2022/05/19 02:35:39;;;;;;;26.45;18.77;;;;;;;;;;4968008;28;20787;-71
2022/05/19 02:38:04;;;;;;;26.25;18.10;;;;;;;;;;4972329;28;20045;-72
2022/05/19 02:40:31;;;;;;;27.15;19.23;;;;;;;;;;4971886;28;20135;-72
2022/05/19 02:42:57;;;;;;;25.05;19.67;;;;;;;;;;4968996;28;21338;-69
2022/05/19 02:45:23;;;;;;;30.73;20.67;;;;;;;;;;4962216;28;20045;-72
2022/05/19 02:47:49;;;;;;;29.95;20.83;;;;;;;;;;4980126;28;20050;-71
2022/05/19 02:50:15;;;;;;;26.23;19.98;;;;;;;;;;4968907;28;20060;-71
2022/05/19 02:52:40;;;;;;;28.15;19.42;;;;;;;;;;4963019;28;20051;-72
2022/05/19 02:55:06;;;;;;;27.08;19.73;;;;;;;;;;4969049;28;20780;-71
2022/05/19 02:57:31;;;;;;;29.98;20.88;;;;;;;;;;4964783;28;20041;-70
2022/05/19 02:59:57;;;;;;;32.30;22.65;;;;;;;;;;4968314;28;20166;-71
2022/05/19 03:02:25;;;;;;;29.63;21.73;;;;;;;;;;4971630;28;20140;-71
2022/05/19 03:04:51;;;;;;;35.75;22.02;;;;;;;;;;4970891;28;20030;-70
2022/05/19 03:07:20;;;;;;;33.58;21.35;;;;;;;;;;4990760;28;20120;-71
2022/05/19 03:09:45;;;;;;;31.33;20.00;;;;;;;;;;4978115;28;20029;-71
2022/05/19 03:12:11;;;;;;;26.33;18.27;;;;;;;;;;4989146;28;20041;-70
2022/05/19 03:14:37;;;;;;;26.38;18.70;;;;;;;;;;4981573;28;20055;-70
2022/05/19 03:17:05;;;;;;;24.98;17.02;;;;;;;;;;4999127;28;20065;-70
2022/05/19 03:19:30;;;;;;;26.85;17.35;;;;;;;;;;4990946;28;20571;-70
2022/05/19 03:21:58;;;;;;;26.33;17.73;;;;;;;;;;4987963;28;20384;-70
2022/05/19 03:24:23;;;;;;;28.20;18.45;;;;;;;;;;4971281;28;20095;-69
2022/05/19 03:26:48;;;;;;;32.55;19.30;;;;;;;;;;4970120;28;20037;-69
2022/05/19 03:29:13;;;;;;;29.25;19.13;;;;;;;;;;4967102;28;20136;-70
2022/05/19 03:31:39;;;;;;;30.02;19.73;;;;;;;;;;4967531;28;20252;-70
2022/05/19 03:34:04;;;;;;;29.67;19.55;;;;;;;;;;4967810;28;20569;-70
2022/05/19 03:36:30;;;;;;;33.72;21.20;;;;;;;;;;4972635;28;21826;-70
2022/05/19 03:38:55;;;;;;;34.28;23.17;;;;;;;;;;4971916;28;20030;-70
2022/05/19 03:41:21;;;;;;;32.85;22.65;;;;;;;;;;4976517;28;20148;-70
2022/05/19 03:43:47;;;;;;;31.98;22.83;;;;;;;;;;4977446;28;20033;-70
2022/05/19 03:46:12;;;;;;;30.13;22.90;;;;;;;;;;4973535;28;20160;-69
2022/05/19 03:48:40;;;;;;;47.95;26.30;;;;;;;;;;4978770;28;20053;-71
2022/05/19 03:51:10;;;;;;;43.90;25.83;;;;;;;;;;4978431;28;21087;-70
2022/05/19 03:53:35;;;;;;;50.97;27.95;;;;;;;;;;4971861;28;20434;-72
2022/05/19 03:56:01;;;;;;;38.50;29.25;;;;;;;;;;4978682;28;20592;-72
2022/05/19 03:58:26;;;;;;;45.00;33.85;;;;;;;;;;4983544;28;20073;-72
2022/05/19 04:00:51;;;;;;;49.40;38.85;;;;;;;;;;4976101;28;20510;-72
2022/05/19 04:03:17;;;;;;;49.45;40.05;;;;;;;;;;4974780;28;20464;-72
2022/05/19 04:05:45;;;;;;;70.13;42.42;;;;;;;;;;4958295;28;20624;-72
2022/05/19 04:08:11;;;;;;;56.15;41.78;;;;;;;;;;4979092;28;20037;-72
2022/05/19 04:10:42;;;;;;;59.55;43.20;;;;;;;;;;4982781;28;20061;-73
2022/05/19 04:13:07;;;;;;;62.20;47.75;;;;;;;;;;4978865;28;20437;-73
2022/05/19 04:15:33;;;;;;;65.07;46.33;;;;;;;;;;4978980;28;20380;-73
2022/05/19 04:17:58;;;;;;;64.65;45.15;;;;;;;;;;4981652;28;20321;-73
2022/05/19 04:20:26;;;;;;;64.13;45.35;;;;;;;;;;4985475;28;20041;-73
2022/05/19 04:22:51;;;;;;;82.07;47.28;;;;;;;;;;4980853;28;20038;-73
2022/05/19 04:25:23;;;;;;;80.38;48.13;;;;;;;;;;4982715;28;20041;-73
2022/05/19 04:27:49;;;;;;;72.43;43.95;;;;;;;;;;4957885;28;20111;-73
2022/05/19 04:30:15;;;;;;;65.55;43.35;;;;;;;;;;4985570;28;20029;-73
2022/05/19 04:32:42;;;;;;;64.45;42.75;;;;;;;;;;4983816;28;20173;-73
2022/05/19 04:35:08;;;;;;;64.22;43.20;;;;;;;;;;4979079;28;20045;-73
2022/05/19 04:37:33;;;;;;;58.95;38.33;;;;;;;;;;4975835;28;20033;-74
2022/05/19 04:40:03;;;;;;;64.55;44.58;;;;;;;;;;4977953;28;20057;-73
2022/05/19 04:42:28;;;;;;;61.72;43.85;;;;;;;;;;4965864;28;20461;-73
2022/05/19 04:44:54;;;;;;;64.90;45.67;;;;;;;;;;4970222;28;20374;-72
2022/05/19 04:47:20;;;;;;;68.97;45.35;;;;;;;;;;4966358;28;20041;-72
2022/05/19 04:49:49;;;;;;;63.88;45.38;;;;;;;;;;4967475;28;20046;-73
2022/05/19 04:52:15;;;;;;;63.70;47.53;;;;;;;;;;4968888;28;20122;-72
2022/05/19 04:54:43;;;;;;;63.97;46.70;;;;;;;;;;4970819;28;20026;-72
2022/05/19 04:57:10;;;;;;;65.43;47.28;;;;;;;;;;4972404;28;20033;-72
2022/05/19 04:59:39;;;;;;;63.33;44.65;;;;;;;;;;4990962;28;20288;-72
2022/05/19 05:02:05;;;;;;;61.85;43.00;;;;;;;;;;4988995;28;20316;-72
2022/05/19 05:04:33;;;;;;;58.63;40.72;;;;;;;;;;4982823;28;20380;-73
2022/05/19 05:07:01;;;;;;;55.05;41.28;;;;;;;;;;4980189;28;20600;-74
2022/05/19 05:09:27;;;;;;;50.00;37.80;;;;;;;;;;4990703;28;20073;-71
2022/05/19 05:11:52;;;;;;;54.15;38.40;;;;;;;;;;4932406;28;20749;-72
2022/05/19 05:14:18;;;;;;;49.25;37.20;;;;;;;;;;4948360;28;20639;-72
2022/05/19 05:16:48;;;;;;;45.75;36.13;;;;;;;;;;4967865;28;20045;-72
2022/05/19 05:19:13;;;;;;;44.85;37.45;;;;;;;;;;4963705;28;20248;-72
2022/05/19 05:21:42;;;;;;;48.00;37.85;;;;;;;;;;4969857;28;20516;-73
2022/05/19 05:24:07;;;;;;;49.25;38.97;;;;;;;;;;4971343;28;20561;-72
2022/05/19 05:26:35;;;;;;;48.72;38.47;;;;;;;;;;4968233;28;20037;-71
2022/05/19 05:29:00;;;;;;;48.35;38.25;;;;;;;;;;4973052;28;20132;-72
2022/05/19 05:31:26;;;;;;;49.90;38.58;;;;;;;;;;4971968;28;20059;-72
2022/05/19 05:33:51;;;;;;;48.30;38.13;;;;;;;;;;4967893;28;20565;-72
2022/05/19 05:36:17;;;;;;;48.38;38.80;;;;;;;;;;4966152;28;20696;-72
2022/05/19 05:38:42;;;;;;;52.03;38.92;;;;;;;;;;4967490;28;20653;-73
2022/05/19 05:41:07;;;;;;;48.53;40.22;;;;;;;;;;4969723;28;20254;-71
2022/05/19 05:43:35;;;;;;;48.15;39.83;;;;;;;;;;4968209;28;20074;-72
2022/05/19 05:46:05;;;;;;;47.13;39.63;;;;;;;;;;4965572;28;20880;-72
2022/05/19 05:48:31;;;;;;;45.65;38.17;;;;;;;;;;4966994;28;20046;-74
2022/05/19 05:50:56;;;;;;;45.45;38.55;;;;;;;;;;4968060;28;20045;-72
2022/05/19 05:53:21;;;;;;;47.92;39.15;;;;;;;;;;4964776;28;20034;-71
2022/05/19 05:55:49;;;;;;;41.75;36.08;;;;;;;;;;4973227;28;20148;-73
2022/05/19 05:58:17;;;;;;;38.88;34.20;;;;;;;;;;4971177;28;20053;-73
2022/05/19 06:00:42;;;;;;;39.03;32.72;;;;;;;;;;4973941;28;20041;-70
2022/05/19 06:03:07;;;;;;;38.47;32.83;;;;;;;;;;4976586;28;20489;-73
2022/05/19 06:05:35;;;;;;;36.72;32.03;;;;;;;;;;4987092;28;20076;-72
2022/05/19 06:08:00;;;;;;;40.50;31.88;;;;;;;;;;4987992;28;20049;-71
2022/05/19 06:10:25;;;;;;;35.45;31.55;;;;;;;;;;4986356;28;20275;-71
2022/05/19 06:12:51;;;;;;;34.60;30.02;;;;;;;;;;4992774;28;20038;-71
2022/05/19 06:15:17;;;;;;;37.97;29.85;;;;;;;;;;4989268;28;20034;-71
2022/05/19 06:17:42;;;;;;;38.60;30.10;;;;;;;;;;4987365;28;20041;-71
2022/05/19 06:20:10;;;;;;;35.50;30.25;;;;;;;;;;4994037;28;20519;-71
2022/05/19 06:22:36;;;;;;;33.70;30.13;;;;;;;;;;4988043;28;20044;-71
2022/05/19 06:25:01;;;;;;;36.05;30.92;;;;;;;;;;4990553;28;20068;-71
2022/05/19 06:27:28;;;;;;;34.60;30.95;;;;;;;;;;4990718;28;20849;-70
2022/05/19 06:29:53;;;;;;;33.90;30.20;;;;;;;;;;4989155;28;20040;-70
2022/05/19 06:32:19;;;;;;;37.67;29.25;;;;;;;;;;4987591;28;20079;-71
2022/05/19 06:34:44;;;;;;;42.58;30.83;;;;;;;;;;4991600;28;20957;-71
2022/05/19 06:37:10;;;;;;;39.67;32.08;;;;;;;;;;4989187;28;20083;-72
2022/05/19 06:39:35;;;;;;;45.47;35.08;;;;;;;;;;4978980;28;20049;-72
2022/05/19 06:42:00;;;;;;;44.83;36.42;;;;;;;;;;4968433;28;20714;-71
2022/05/19 06:44:33;;;;;;;46.10;39.05;;;;;;;;;;4989964;28;20643;-72
2022/05/19 06:46:59;;;;;;;50.35;40.15;;;;;;;;;;4969236;28;20192;-71
2022/05/19 06:49:24;;;;;;;48.35;41.42;;;;;;;;;;4971054;28;20030;-69
2022/05/19 06:51:50;;;;;;;52.75;44.03;;;;;;;;;;4956441;28;20034;-71
2022/05/19 06:54:15;;;;;;;52.08;44.08;;;;;;;;;;4971396;28;20680;-69
2022/05/19 06:56:41;;;;;;;48.67;38.47;;;;;;;;;;4980493;28;20033;-71
2022/05/19 06:59:07;;;;;;;43.53;38.58;;;;;;;;;;4967245;28;20167;-71
2022/05/19 07:01:32;;;;;;;54.50;44.42;;;;;;;;;;4967788;28;20120;-70
2022/05/19 07:03:57;;;;;;;61.00;49.22;;;;;;;;;;4965894;28;20175;-71
2022/05/19 07:06:23;;;;;;;62.40;55.63;;;;;;;;;;4962849;28;20022;-71
2022/05/19 07:08:49;;;;;;;54.33;48.40;;;;;;;;;;4963539;28;20045;-72
2022/05/19 07:11:26;;;;;;;57.10;48.95;;;;;;;;;;4967479;28;20092;-70
2022/05/19 07:13:55;;;;;;;53.80;45.63;;;;;;;;;;4967602;28;20837;-71
2022/05/19 07:16:21;;;;;;;44.25;39.47;;;;;;;;;;4993811;28;20170;-71
2022/05/19 07:18:47;;;;;;;50.20;44.88;;;;;;;;;;4967870;28;20037;-71
2022/05/19 07:21:12;;;;;;;51.30;45.97;;;;;;;;;;4972720;28;20064;-71
2022/05/19 07:23:38;;;;;;;52.58;46.47;;;;;;;;;;4972133;28;20990;-71
2022/05/19 07:26:03;;;;;;;52.92;47.53;;;;;;;;;;4971540;28;20056;-71
2022/05/19 07:28:29;;;;;;;55.88;48.28;;;;;;;;;;4967460;28;20058;-71
2022/05/19 07:30:55;;;;;;;50.45;44.70;;;;;;;;;;4970276;28;20569;-72
2022/05/19 07:33:21;;;;;;;54.55;48.50;;;;;;;;;;4972413;28;20038;-71
2022/05/19 07:35:46;;;;;;;56.63;48.50;;;;;;;;;;4963606;28;20041;-71
2022/05/19 07:38:13;;;;;;;50.75;45.45;;;;;;;;;;4972613;28;20785;-71
2022/05/19 07:40:38;;;;;;;54.92;48.67;;;;;;;;;;4972731;28;20120;-70
2022/05/19 07:43:49;;;;;;;54.60;46.38;;;;;;;;;;4973039;28;20041;-71
2022/05/19 07:45:49;;;;;;;54.63;47.05;;;;;;;;;;4968543;28;20049;-72
2022/05/19 07:48:15;;;;;;;54.00;46.45;;;;;;;;;;4973592;28;20042;-73
2022/05/19 07:50:40;;;;;;;46.15;41.10;;;;;;;;;;4982226;28;20600;-73
2022/05/19 07:53:05;;;;;;;44.28;39.67;;;;;;;;;;4971036;28;20036;-73
2022/05/19 07:55:31;;;;;;;44.35;39.42;;;;;;;;;;4971217;28;20037;-72
2022/05/19 07:57:56;;;;;;;44.53;37.38;;;;;;;;;;4969119;28;20140;-72
2022/05/19 08:00:22;;;;;;;42.47;37.88;;;;;;;;;;4970551;28;20070;-72
2022/05/19 08:02:47;;;;;;;51.78;41.75;;;;;;;;;;4969727;28;20040;-72
2022/05/19 08:05:13;;;;;;;46.70;41.63;;;;;;;;;;4949988;28;20064;-72
2022/05/19 08:07:41;;;;;;;50.10;42.60;;;;;;;;;;4979575;28;20795;-72
2022/05/19 08:10:25;;;;;;;44.75;38.20;;;;;;;;;;4971193;28;20064;-72
2022/05/19 08:15:36;;;;;;;41.38;32.63;;;;;;;;;;4989274;28;22605;-73
2022/05/19 08:18:06;;;;;;;38.80;30.23;;;;;;;;;;4962623;28;20033;-73
2022/05/19 08:20:33;;;;;;;38.70;31.20;;;;;;;;;;4971213;28;20872;-73
2022/05/19 08:22:59;;;;;;;37.22;31.98;;;;;;;;;;4971996;28;20153;-73
2022/05/19 08:25:26;;;;;;;36.42;29.60;;;;;;;;;;4968829;28;20046;-73
2022/05/19 08:27:55;;;;;;;34.25;30.63;;;;;;;;;;4969791;28;20056;-72
2022/05/19 08:30:21;;;;;;;38.22;29.67;;;;;;;;;;4964574;28;20385;-73
2022/05/19 08:32:46;;;;;;;33.15;29.70;;;;;;;;;;4963062;28;20399;-73
2022/05/19 08:35:12;;;;;;;33.35;29.60;;;;;;;;;;4976990;28;20341;-73
2022/05/19 08:37:38;;;;;;;34.95;31.15;;;;;;;;;;4966037;28;21148;-73
2022/05/19 08:40:08;;;;;;;29.80;26.73;;;;;;;;;;4972437;28;20419;-74
2022/05/19 08:42:36;;;;;;;28.92;25.48;;;;;;;;;;4964433;28;20582;-73
2022/05/19 08:45:04;;;;;;;27.83;25.00;;;;;;;;;;4969156;28;20212;-74
2022/05/19 08:47:33;;;;;;;26.85;24.02;;;;;;;;;;4966691;28;20058;-73
2022/05/19 08:50:03;;;;;;;28.00;24.30;;;;;;;;;;4967988;28;20033;-76
2022/05/19 08:52:38;;;;;;;28.88;25.90;;;;;;;;;;4955302;28;20700;-76
2022/05/19 08:55:04;;;;;;;23.73;21.20;;;;;;;;;;4984973;28;20430;-78
2022/05/19 08:57:31;;;;;;;21.55;19.27;;;;;;;;;;4987014;28;20139;-77
2022/05/19 09:00:06;;;;;;;22.25;19.85;;;;;;;;;;4988764;28;20751;-78
2022/05/19 09:02:35;;;;;;;22.30;19.90;;;;;;;;;;4983248;28;20796;-78
2022/05/19 09:05:05;;;;;;;20.90;18.80;;;;;;;;;;4988226;28;20205;-78
2022/05/19 09:07:58;;;;;;;20.73;18.42;;;;;;;;;;4990688;28;20052;-81
2022/05/19 09:10:30;;;;;;;19.75;17.90;;;;;;;;;;4987745;28;20623;-77
2022/05/19 09:13:18;;;;;;;18.88;16.25;;;;;;;;;;4973452;28;20037;-77
2022/05/19 09:15:46;;;;;;;16.35;14.65;;;;;;;;;;4971976;28;20041;-76
2022/05/19 09:18:14;;;;;;;18.25;14.05;;;;;;;;;;4969360;28;20139;-76
2022/05/19 09:20:49;;;;;;;15.02;12.52;;;;;;;;;;4994737;28;20069;-75
2022/05/19 09:23:17;;;;;;;13.05;10.75;;;;;;;;;;4984274;28;20042;-76
2022/05/19 09:25:49;;;;;;;12.05;10.75;;;;;;;;;;5000620;28;20363;-75
2022/05/19 09:28:15;;;;;;;13.23;9.55;;;;;;;;;;4964038;28;20310;-75
2022/05/19 09:30:49;;;;;;;10.30;8.70;;;;;;;;;;4968998;28;20041;-76
2022/05/19 09:33:15;;;;;;;10.32;8.00;;;;;;;;;;4966149;28;20052;-70
2022/05/19 09:35:47;;;;;;;15.68;8.65;;;;;;;;;;4976704;28;20560;-73
2022/05/19 09:38:23;;;;;;;13.00;9.85;;;;;;;;;;4969935;28;20038;-73
2022/05/19 09:40:48;;;;;;;15.40;10.40;;;;;;;;;;4976436;28;20034;-71
2022/05/19 09:43:17;;;;;;;12.15;9.57;;;;;;;;;;4970213;28;20517;-73
2022/05/19 09:45:49;;;;;;;14.55;8.95;;;;;;;;;;4973825;28;20684;-71
2022/05/19 09:48:19;;;;;;;13.45;8.77;;;;;;;;;;4967494;28;20048;-71
2022/05/19 09:50:46;;;;;;;13.00;8.70;;;;;;;;;;4970206;28;20112;-72
2022/05/19 09:53:22;;;;;;;16.52;10.52;;;;;;;;;;4966286;28;20044;-71
2022/05/19 09:55:54;;;;;;;15.25;12.20;;;;;;;;;;4970607;28;20132;-71
2022/05/19 09:58:25;;;;;;;16.25;12.95;;;;;;;;;;4968222;28;20546;-71
2022/05/19 10:00:57;;;;;;;16.55;14.82;;;;;;;;;;4967878;28;20038;-71
2022/05/19 10:03:34;;;;;;;20.35;15.35;;;;;;;;;;4970216;28;20116;-71
2022/05/19 10:06:04;;;;;;;17.83;13.35;;;;;;;;;;4969378;28;20188;-71
2022/05/19 10:08:40;;;;;;;17.15;12.13;;;;;;;;;;4967131;28;20049;-70
2022/05/19 10:11:17;;;;;;;15.90;11.55;;;;;;;;;;4967870;28;20275;-71
2022/05/19 10:13:46;;;;;;;15.00;12.45;;;;;;;;;;4967262;28;20348;-71
2022/05/19 10:16:12;;;;;;;18.00;11.20;;;;;;;;;;4967300;28;20207;-71
2022/05/19 10:18:42;;;;;;;16.38;11.57;;;;;;;;;;4968088;28;20049;-71
2022/05/19 10:21:11;;;;;;;15.07;11.73;;;;;;;;;;4966365;28;20045;-70
2022/05/19 10:23:59;;;;;;;15.60;12.77;;;;;;;;;;4962928;28;20175;-71
2022/05/19 10:26:50;;;;;;;14.95;10.50;;;;;;;;;;4940084;28;20121;-70
2022/05/19 10:32:18;;;;;;;19.67;11.07;;;;;;;;;;4980252;28;21750;-67
2022/05/19 10:35:01;;;;;;;27.75;15.13;;;;;;;;;;4984899;28;20041;-70
2022/05/19 10:37:29;;;;;;;19.58;16.15;;;;;;;;;;4987865;28;20377;-72
2022/05/19 10:40:03;;;;;;;61.78;25.80;;;;;;;;;;4985127;28;20049;-71
2022/05/19 10:42:38;;;;;;;41.50;13.10;;;;;;;;;;4985830;28;20041;-71
2022/05/19 10:45:07;;;;;;;57.45;15.93;;;;;;;;;;4976423;28;20523;-71
2022/05/19 10:47:32;;;;;;;45.65;18.40;;;;;;;;;;4966065;28;20067;-69
2022/05/19 10:50:16;;;;;;;46.97;20.33;;;;;;;;;;4977386;28;20057;-67
2022/05/19 10:52:41;;;;;;;38.03;21.10;;;;;;;;;;4962994;28;20046;-66
2022/05/19 10:55:28;;;;;;;43.40;24.48;;;;;;;;;;4955721;28;21897;-67
2022/05/19 10:58:19;;;;;;;36.72;18.92;;;;;;;;;;4968973;28;20190;-66
2022/05/19 11:01:03;;;;;;;52.20;18.97;;;;;;;;;;4991656;28;20041;-66
2022/05/19 11:03:57;;;;;;;44.22;14.48;;;;;;;;;;4999992;28;20271;-66
2022/05/19 11:06:41;;;;;;;42.83;13.55;;;;;;;;;;4984265;28;20067;-67
2022/05/19 11:09:06;;;;;;;48.55;15.18;;;;;;;;;;4977763;28;20053;-63
2022/05/19 11:11:50;;;;;;;47.85;17.90;;;;;;;;;;4980631;28;20069;-63
2022/05/19 11:14:16;;;;;;;49.08;21.70;;;;;;;;;;4982262;28;20620;-65
2022/05/19 11:16:48;;;;;;;54.88;21.10;;;;;;;;;;4981641;28;20040;-64
2022/05/19 11:19:43;;;;;;;50.47;20.25;;;;;;;;;;4981182;28;20197;-63
2022/05/19 11:22:13;;;;;;;49.22;18.20;;;;;;;;;;4970641;28;20115;-63
2022/05/19 11:27:38;;;;;;;56.17;15.93;;;;;;;;;;4966752;28;20299;-69
2022/05/19 11:30:08;;;;;;;53.42;14.68;;;;;;;;;;4965321;28;20034;-69
2022/05/19 11:32:37;;;;;;;64.68;13.70;;;;;;;;;;4967023;28;20033;-70
2022/05/19 11:35:09;;;;;;;70.90;13.07;;;;;;;;;;4960967;28;20140;-69
2022/05/19 11:37:53;;;;;;;73.60;13.00;;;;;;;;;;4964202;28;20041;-70
2022/05/19 11:40:39;;;;;;;48.60;12.63;;;;;;;;;;4957347;28;20056;-72
2022/05/19 11:43:07;;;;;;;52.17;13.68;;;;;;;;;;4972252;28;20040;-70
2022/05/19 11:45:52;;;;;;;53.13;15.30;;;;;;;;;;4962680;28;20037;-68
2022/05/19 11:57:19;;;;;;;33.35;12.13;;;;;;;;;;4966452;28;20038;-68
2022/05/19 11:59:47;;;;;;;50.42;14.77;;;;;;;;;;4970294;28;20738;-70
2022/05/19 12:02:15;;;;;;;54.67;15.02;;;;;;;;;;4955322;28;20044;-69
2022/05/19 12:04:41;;;;;;;60.03;15.88;;;;;;;;;;4958504;28;20087;-76
2022/05/19 12:07:11;;;;;;;52.95;16.67;;;;;;;;;;4975807;28;20038;-75
2022/05/19 12:09:37;;;;;;;45.83;14.50;;;;;;;;;;4978066;28;20136;-75
2022/05/19 12:12:02;;;;;;;43.00;13.80;;;;;;;;;;4985471;28;20414;-75
2022/05/19 12:14:44;;;;;;;50.20;14.80;;;;;;;;;;4971793;28;20116;-73
2022/05/19 12:17:15;;;;;;;40.63;14.77;;;;;;;;;;4970679;28;20115;-74
2022/05/19 12:19:47;;;;;;;40.50;13.90;;;;;;;;;;4959939;28;20136;-73
2022/05/19 12:22:30;;;;;;;46.30;14.65;;;;;;;;;;4968079;28;20060;-73
2022/05/19 12:25:08;;;;;;;46.83;14.80;;;;;;;;;;4969707;28;20046;-73
2022/05/19 12:27:36;;;;;;;37.10;13.00;;;;;;;;;;4968996;28;20053;-73
2022/05/19 12:33:10;;;;;;;47.33;15.07;;;;;;;;;;4986233;28;20040;-74
2022/05/19 12:35:37;;;;;;;35.28;16.70;;;;;;;;;;4981829;28;20034;-73
2022/05/19 12:38:04;;;;;;;45.90;17.60;;;;;;;;;;4972262;28;20045;-72
2022/05/19 12:40:51;;;;;;;44.80;17.17;;;;;;;;;;4969071;28;20228;-73
2022/05/19 12:43:19;;;;;;;47.35;20.33;;;;;;;;;;4999012;28;20182;-75
2022/05/19 12:45:49;;;;;;;41.42;20.05;;;;;;;;;;5005339;28;20033;-74
2022/05/19 12:48:18;;;;;;;45.17;20.23;;;;;;;;;;4989700;28;20053;-72
2022/05/19 12:50:51;;;;;;;51.97;21.90;;;;;;;;;;4985538;28;20199;-72
2022/05/19 12:53:22;;;;;;;52.30;23.00;;;;;;;;;;4964444;28;20508;-73
2022/05/19 12:55:50;;;;;;;50.50;23.75;;;;;;;;;;4973551;28;20033;-74
2022/05/19 12:58:35;;;;;;;46.47;25.17;;;;;;;;;;4991050;28;20045;-75
2022/05/19 13:01:16;;;;;;;53.08;25.00;;;;;;;;;;4978897;28;20033;-72
2022/05/19 13:03:42;;;;;;;51.80;24.40;;;;;;;;;;4981612;28;20045;-74
2022/05/19 13:06:11;;;;;;;49.80;24.38;;;;;;;;;;4994881;28;20033;-69
2022/05/19 13:08:40;;;;;;;43.30;24.13;;;;;;;;;;5006373;28;20786;-71
2022/05/19 13:11:11;;;;;;;48.20;24.67;;;;;;;;;;5002244;28;20034;-72
2022/05/19 13:13:40;;;;;;;46.88;25.52;;;;;;;;;;4975823;28;20046;-67
2022/05/19 13:16:26;;;;;;;48.25;27.00;;;;;;;;;;4952902;28;20157;-69
2022/05/19 13:19:02;;;;;;;54.50;27.42;;;;;;;;;;4946953;28;20712;-67
2022/05/19 13:21:34;;;;;;;49.92;27.20;;;;;;;;;;4977610;28;20220;-70
2022/05/19 13:24:07;;;;;;;47.35;25.23;;;;;;;;;;4969177;28;20610;-68
2022/05/19 13:26:37;;;;;;;44.67;27.52;;;;;;;;;;4971039;28;20111;-68
2022/05/19 13:31:51;;;;;;;35.60;22.42;;;;;;;;;;4968841;28;20758;-70
2022/05/19 13:34:17;;;;;;;36.90;20.80;;;;;;;;;;4968094;28;20193;-71
2022/05/19 13:36:51;;;;;;;41.20;22.65;;;;;;;;;;4969126;28;20161;-68
2022/05/19 13:39:20;;;;;;;46.42;21.20;;;;;;;;;;4976687;28;20044;-72
2022/05/19 13:41:59;;;;;;;28.65;16.17;;;;;;;;;;4976300;28;20083;-70
2022/05/19 13:44:36;;;;;;;24.73;13.13;;;;;;;;;;4968434;28;20398;-71
2022/05/19 13:47:19;;;;;;;23.25;12.95;;;;;;;;;;4973148;28;20038;-72
2022/05/19 13:50:04;;;;;;;46.33;19.63;;;;;;;;;;4968698;28;20038;-67
2022/05/19 13:52:31;;;;;;;42.33;18.60;;;;;;;;;;4978210;28;20120;-67
2022/05/19 13:54:57;;;;;;;24.10;14.07;;;;;;;;;;4971241;28;20033;-71
2022/05/19 13:57:26;;;;;;;24.65;11.57;;;;;;;;;;4971566;28;20111;-72
2022/05/19 13:59:53;;;;;;;24.00;10.32;;;;;;;;;;4983654;28;20038;-69
2022/05/19 14:02:30;;;;;;;16.80;7.07;;;;;;;;;;4971368;28;20038;-70
2022/05/19 14:04:56;;;;;;;19.15;7.90;;;;;;;;;;4972194;28;20044;-71
2022/05/19 14:07:22;;;;;;;18.38;8.45;;;;;;;;;;4974348;28;21254;-68
2022/05/19 14:09:48;;;;;;;22.58;9.20;;;;;;;;;;4970928;28;20036;-69
2022/05/19 14:12:13;;;;;;;22.55;9.30;;;;;;;;;;4969695;28;20029;-69
2022/05/19 14:14:47;;;;;;;24.80;10.32;;;;;;;;;;4972468;28;20154;-70
2022/05/19 14:17:14;;;;;;;25.70;11.23;;;;;;;;;;4980333;28;20037;-70
2022/05/19 14:19:41;;;;;;;21.83;11.10;;;;;;;;;;4968759;28;20041;-69
2022/05/19 14:22:09;;;;;;;24.45;10.85;;;;;;;;;;4972105;28;20026;-70
2022/05/19 14:24:35;;;;;;;22.38;9.98;;;;;;;;;;4978385;28;20044;-70
2022/05/19 14:27:03;;;;;;;24.60;10.68;;;;;;;;;;4972626;28;20057;-69
2022/05/19 14:29:32;;;;;;;26.27;10.50;;;;;;;;;;4970215;28;20038;-71
2022/05/19 14:32:20;;;;;;;23.08;9.68;;;;;;;;;;4972682;28;20252;-69
2022/05/19 14:34:46;;;;;;;26.67;10.60;;;;;;;;;;4978897;28;20037;-70
2022/05/19 14:37:17;;;;;;;26.60;10.27;;;;;;;;;;4989712;28;20048;-70
2022/05/19 14:39:45;;;;;;;27.25;10.93;;;;;;;;;;4991978;28;20253;-71
2022/05/19 14:45:00;;;;;;;30.35;9.95;;;;;;;;;;4988399;28;20037;-68
2022/05/19 14:47:52;;;;;;;22.15;10.07;;;;;;;;;;4988204;28;20091;-69
2022/05/19 14:50:17;;;;;;;23.77;9.77;;;;;;;;;;4985004;28;20505;-70
2022/05/19 14:52:45;;;;;;;20.67;8.13;;;;;;;;;;4987576;28;20120;-69
2022/05/19 14:55:21;;;;;;;19.58;7.80;;;;;;;;;;4989716;28;20038;-68
2022/05/19 14:57:50;;;;;;;23.15;6.78;;;;;;;;;;4989219;28;20049;-69